< Typhoon 198922 1989 Season Typhoon 198924 >
Typhoon 198923 (ANGELA)
General InformationTrack Information on Google MapsDetailed Wind InformationList of All Images || NewsDisaster Info.ResourceGoogle EarthGE AnimationAtom FeedGeoJSON
Detalied Best Track (Time Zone = UTC)
Year Month Day Hour Lat. Long. Pressure (hPa) Wind (kt) Class Image Chart
1989 9 28 06 11.0 141.0 1008 0 2 Image Chart
1989 9 28 12 11.4 140.5 1006 0 2 Image Chart
1989 9 28 18 11.7 139.8 1004 0 2 Image Chart
1989 9 29 00 12.0 139.2 1004 0 2 Image Chart
1989 9 29 06 13.3 139.5 1000 35 3 Image Chart
1989 9 29 12 14.4 139.5 1000 35 3 Image Chart
1989 9 29 18 15.1 139.3 996 40 3 Image Chart
1989 9 30 00 15.5 138.9 994 40 3 Image Chart
1989 9 30 06 15.7 138.3 994 40 3 Image Chart
1989 9 30 12 16.0 138.2 990 45 3 Image Chart
1989 9 30 18 16.3 138.1 980 55 4 Image Chart
1989 10 1 00 16.5 137.9 970 65 5 Image Chart
1989 10 1 06 16.9 137.3 965 70 5 Image Chart
1989 10 1 12 17.0 136.8 960 70 5 Image Chart
1989 10 1 18 17.2 136.0 950 80 5 Image Chart
1989 10 2 00 17.4 135.3 945 85 5 Image Chart
1989 10 2 06 17.6 134.4 940 85 5 Image Chart
1989 10 2 12 17.8 133.5 930 90 5 Image Chart
1989 10 2 18 17.9 132.7 925 95 5 Image Chart
1989 10 3 00 18.0 132.0 925 95 5 Image Chart
1989 10 3 06 18.2 131.3 925 95 5 Image Chart
1989 10 3 12 18.2 130.8 925 95 5 Image Chart
1989 10 3 18 18.2 130.2 935 90 5 Image Chart
1989 10 4 00 18.2 129.5 935 90 5 Image Chart
1989 10 4 06 18.2 128.6 940 85 5 Image Chart
1989 10 4 12 18.3 127.5 945 85 5 Image Chart
1989 10 4 18 18.2 126.4 945 85 5 Image Chart
1989 10 5 00 18.1 125.2 945 85 5 Image Chart
1989 10 5 06 18.2 124.1 945 85 5 Image Chart
1989 10 5 12 18.4 123.1 940 85 5 Image Chart
1989 10 5 18 18.7 122.2 940 85 5 Image Chart
1989 10 6 00 18.8 121.2 950 80 5 Image Chart
1989 10 6 06 18.8 120.2 960 70 5 Image Chart
1989 10 6 12 18.7 119.3 960 70 5 Image Chart
1989 10 6 18 18.6 118.5 960 70 5 Image Chart
1989 10 7 00 18.5 118.0 955 75 5 Image Chart
1989 10 7 06 18.4 117.3 955 75 5 Image Chart
1989 10 7 12 18.3 116.6 955 75 5 Image Chart
1989 10 7 18 18.3 115.9 955 75 5 Image Chart
1989 10 8 00 18.3 115.2 955 75 5 Image Chart
1989 10 8 06 18.2 114.5 955 75 5 Image Chart
1989 10 8 12 18.0 113.6 955 75 5 Image Chart
1989 10 8 18 17.9 112.5 955 75 5 Image Chart
1989 10 9 00 17.6 111.6 955 75 5 Image Chart
1989 10 9 06 17.6 110.7 955 75 5 Image Chart
1989 10 9 12 17.6 109.7 960 75 5 Image Chart
1989 10 9 18 17.6 108.8 965 70 5 Image Chart
1989 10 10 00 17.5 107.8 965 70 5 Image Chart
1989 10 10 06 17.5 107.0 970 65 5 Image Chart
1989 10 10 12 17.5 106.4 980 55 4 Image Chart
1989 10 10 18 17.2 105.9 996 35 3 Image Chart
1989 10 11 00 17.0 105.5 1004 0 2 Image Chart
Japan Meteorological Agency Best Track Data | Correction Date : 1992-10-21
< Typhoon 198922 1989 Season Typhoon 198924 >

Help